WetterOnline ( https://www.wetteronline.at )

Wetter aktuell Rhön (in 800m)

Aktuelles Wetter: Wasserkuppe (925m)

6-stündlich | Neueste Meldungen
Ortszeit Temperatur Wetter
Di, 29.09. 2:00 4.8° C fast wolkenlos
Mo, 28.09. 20:00 5.7° C wolkenlos
Mo, 28.09. 14:00 11.1° C leicht bewölkt
Mo, 28.09. 8:00 2.9° C leicht bewölkt
Mo, 28.09. 2:00 3.9° C bedeckt
So, 27.09. 20:00 5.4° C bedeckt
So, 27.09. 14:00 5.6° C bedeckt
So, 27.09. 8:00 2.9° C Nebel
Ortszeit Temperatur Wetter
Di, 29.09. 5:30 5.3° C leicht bewölkt
Di, 29.09. 5:20 5.3° C leicht bewölkt
Di, 29.09. 5:10 4.9° C fast wolkenlos
Di, 29.09. 5:00 5.4° C wolkenlos
Di, 29.09. 4:50 5.4° C wolkenlos
Di, 29.09. 4:40 5.6° C wolkenlos
Di, 29.09. 4:30 5.0° C wolkenlos
Di, 29.09. 4:00 5.1° C fast wolkenlos
Di, 29.09. 3:30 5.3° C fast wolkenlos
Di, 29.09. 3:00 5.1° C fast wolkenlos
Di, 29.09. 2:30 5.3° C wolkig
Ortszeit Relative Feuchte Sichtweite
Di, 29.09. 2:00 89% 45 km
Mo, 28.09. 20:00 86% >70 km
Mo, 28.09. 14:00 66% >70 km
Mo, 28.09. 8:00 95% 35 km
Mo, 28.09. 2:00 95% 55 km
So, 27.09. 20:00 97% 35 km
So, 27.09. 14:00 93% 35 km
So, 27.09. 8:00 97% 0.4 km
Ortszeit Relative Feuchte Sichtweite
Di, 29.09. 5:30 97% 9 km
Di, 29.09. 5:20 97% -
Di, 29.09. 5:10 95% -
Di, 29.09. 5:00 93% 20 km
Di, 29.09. 4:50 93% -
Di, 29.09. 4:40 93% -
Di, 29.09. 4:30 92% 26 km
Di, 29.09. 4:00 91% 35 km
Di, 29.09. 3:30 88% 40 km
Di, 29.09. 3:00 90% 45 km
Di, 29.09. 2:30 89% 55 km
Ortszeit Niederschlagsmenge Niederschlagsart
Di, 29.09. 2:00 0.0 l/m2 in 6 Std. -
Mo, 28.09. 20:00 0.0 l/m2 in 12 Std. -
Mo, 28.09. 14:00 0.0 l/m2 in 6 Std. -
Mo, 28.09. 8:00 0.0 l/m2 in 12 Std. -
Mo, 28.09. 2:00 0.0 l/m2 in 6 Std. -
So, 27.09. 20:00 0.7 l/m2 in 12 Std. -
So, 27.09. 14:00 0.7 l/m2 in 6 Std. Regen
So, 27.09. 8:00 8 l/m2 in 12 Std. Regen
Ortszeit Niederschlagsmenge Niederschlagsart
Di, 29.09. 5:30 0.0 l/m2 in 1 Std. -
Di, 29.09. 5:20 keine Meldung -
Di, 29.09. 5:10 keine Meldung -
Di, 29.09. 5:00 0.0 l/m2 in 1 Std. -
Di, 29.09. 4:50 keine Meldung -
Di, 29.09. 4:40 keine Meldung -
Di, 29.09. 4:30 0.0 l/m2 in 1 Std. -
Di, 29.09. 4:00 0.0 l/m2 in 1 Std. -
Di, 29.09. 3:30 0.0 l/m2 in 1 Std. -
Di, 29.09. 3:00 0.0 l/m2 in 1 Std. -
Di, 29.09. 2:30 0.0 l/m2 in 1 Std. -
Ortszeit Stärke Spitze Richtung
km/h Bft. km/h Grad Sektor
Di, 29.09. 2:00 18 3 22 190° S
Mo, 28.09. 20:00 20 4 28 190° S
Mo, 28.09. 14:00 13 3 30 260° W
Mo, 28.09. 8:00 18 3 22 200° S
Mo, 28.09. 2:00 17 3 22 230° SW
So, 27.09. 20:00 15 3 37 190° S
So, 27.09. 14:00 26 4 41 170° S
So, 27.09. 8:00 31 5 46 180° S
Ortszeit Stärke Spitze Richtung
km/h Bft. km/h Grad Sektor
Di, 29.09. 5:30 22 4 28 210° SW
Di, 29.09. 5:20 22 4 - 210° SW
Di, 29.09. 5:10 22 4 - 220° SW
Di, 29.09. 5:00 25 4 32 210° SW
Di, 29.09. 4:50 25 4 - 210° SW
Di, 29.09. 4:40 24 4 - 210° SW
Di, 29.09. 4:30 22 4 25 200° S
Di, 29.09. 4:00 22 4 29 200° S
Di, 29.09. 3:30 24 4 28 190° S
Di, 29.09. 3:00 25 4 29 190° S
Di, 29.09. 2:30 18 3 22 180° S
Ortszeit Untergrenze Bedeckung Gattung
total tief tief mittel hoch
Di, 29.09. 2:00 930 m 1/8 1/8 - - -
Mo, 28.09. 20:00 1050 m 0/8 0/8 - - -
Mo, 28.09. 14:00 750 m 5/8 2/8 - - -
Mo, 28.09. 8:00 6000 m 3/8 3/8 - - -
Mo, 28.09. 2:00 4500 m 8/8 8/8 - - -
So, 27.09. 20:00 780 m 8/8 8/8 - - -
So, 27.09. 14:00 60 m 8/8 8/8 - - -
So, 27.09. 8:00 <30 m 8/8 0/8 - - -
Ortszeit Bedeckungsgrad in Achtel und Wolkenuntergrenze
Di, 29.09. 5:30 3(120m)
Di, 29.09. 5:20 3(120m)
Di, 29.09. 5:10 1(150m)
Di, 29.09. 5:00 1(150m)
Di, 29.09. 4:50 keine Wolken
Di, 29.09. 4:40 keine Wolken
Di, 29.09. 4:30 keine Wolken
Di, 29.09. 4:00 1(720m)
Di, 29.09. 3:30 1(780m)
Di, 29.09. 3:00 1(840m)
Di, 29.09. 2:30 6(1020m)
Ortszeit Stationsdruck (hPa) Tendenz (hPa in 3 Std.)
Di, 29.09. 2:00 908 + 0,2
Mo, 28.09. 20:00 907 + 1,3
Mo, 28.09. 14:00 905 + 0,7
Mo, 28.09. 8:00 903 + 0,6
Mo, 28.09. 2:00 902 - 0,3
So, 27.09. 20:00 901 + 1,3
So, 27.09. 14:00 898 + 1,8
So, 27.09. 8:00 894 + 1,3
Ortszeit Stationsdruck (hPa) Tendenz (hPa in 3 Std.)
Di, 29.09. 5:30 908 + 0,1
Di, 29.09. 5:20 908 keine Meldung
Di, 29.09. 5:10 908 keine Meldung
Di, 29.09. 5:00 908 - 0,1
Di, 29.09. 4:50 908 keine Meldung
Di, 29.09. 4:40 908 keine Meldung
Di, 29.09. 4:30 908 0,0
Di, 29.09. 4:00 908 - 0,1
Di, 29.09. 3:30 908 - 0,1
Di, 29.09. 3:00 908 - 0,2
Di, 29.09. 2:30 908 0,0
Ortszeit Schneehöhe (cm)
Di, 29.09. 2:00 0
Mo, 28.09. 20:00 0
Mo, 28.09. 14:00 0
Mo, 28.09. 8:00 0
Mo, 28.09. 2:00 0
So, 27.09. 20:00 0
So, 27.09. 14:00 0
So, 27.09. 8:00 0
Ortszeit Schneehöhe (cm)
Di, 29.09. 5:30 0
Di, 29.09. 5:20 0
Di, 29.09. 5:10 0
Di, 29.09. 5:00 0
Di, 29.09. 4:50 0
Di, 29.09. 4:40 0
Di, 29.09. 4:30 0
Di, 29.09. 4:00 0
Di, 29.09. 3:30 0
Di, 29.09. 3:00 0
Di, 29.09. 2:30 0
Link zu dieser Seite / Seite empfehlen

Das Wetter in ...